createdAt,value
2017-11-21T00:00:44.861Z,99.99
2017-11-21T00:01:54.306Z,99.99
2017-11-21T00:03:04.011Z,99.99
2017-11-21T00:04:13.197Z,99.99
2017-11-21T00:05:22.906Z,99.99
2017-11-21T00:06:32.615Z,99.99
2017-11-21T00:07:42.077Z,99.99
2017-11-21T00:08:52.045Z,99.99
2017-11-21T00:10:01.740Z,99.99
2017-11-21T00:11:11.211Z,99.99
2017-11-21T00:12:20.912Z,99.99
2017-11-21T00:13:30.622Z,99.99
2017-11-21T00:14:40.598Z,99.99
2017-11-21T00:15:50.573Z,99.99
2017-11-21T00:17:00.280Z,99.99
2017-11-21T00:18:10.263Z,99.99
2017-11-21T00:19:20.251Z,99.99
2017-11-21T00:20:30.232Z,99.99
2017-11-21T00:21:39.984Z,99.99
2017-11-21T00:22:49.956Z,99.99
2017-11-21T00:23:59.937Z,99.99
2017-11-21T00:25:09.377Z,99.99
2017-11-21T00:26:19.095Z,99.99
2017-11-21T00:27:29.070Z,99.99
2017-11-21T00:28:39.041Z,99.99
2017-11-21T00:29:48.741Z,99.99
2017-11-21T00:30:58.717Z,99.99
2017-11-21T00:32:08.691Z,99.99
2017-11-21T00:33:18.663Z,99.99
2017-11-21T00:34:28.363Z,99.99
2017-11-21T00:35:38.365Z,99.99
2017-11-21T00:36:48.087Z,99.99
2017-11-21T00:37:58.048Z,99.99
2017-11-21T00:39:07.768Z,99.99
2017-11-21T00:40:17.468Z,99.99
2017-11-21T00:41:26.909Z,99.99
2017-11-21T00:42:36.616Z,99.99
2017-11-21T00:43:46.583Z,99.99
2017-11-21T00:44:56.554Z,99.99
2017-11-21T00:46:06.261Z,99.99
2017-11-21T00:47:15.985Z,99.99
2017-11-21T00:48:25.431Z,99.99
2017-11-21T00:49:35.403Z,99.99
2017-11-21T00:50:45.120Z,99.99
2017-11-21T00:51:55.095Z,99.99
2017-11-21T00:53:05.089Z,99.99
2017-11-21T00:54:15.048Z,99.99
2017-11-21T00:55:24.749Z,99.99
2017-11-21T00:56:34.732Z,99.99
2017-11-21T00:57:44.469Z,99.99
2017-11-21T00:58:54.170Z,99.99
2017-11-21T01:00:03.890Z,99.99
2017-11-21T01:01:13.863Z,99.99
2017-11-21T01:02:23.301Z,99.99
2017-11-21T01:03:32.738Z,99.99
2017-11-21T01:04:42.179Z,99.99
2017-11-21T01:05:51.619Z,99.99
2017-11-21T01:07:01.599Z,99.99
2017-11-21T01:08:11.557Z,99.99
2017-11-21T01:09:21.520Z,99.99
2017-11-21T01:10:31.509Z,99.99
2017-11-21T01:11:40.948Z,99.99
2017-11-21T01:12:50.908Z,99.99
2017-11-21T01:14:00.886Z,99.99
2017-11-21T01:15:10.855Z,99.99
2017-11-21T01:16:20.314Z,99.99
2017-11-21T01:17:30.304Z,99.99
2017-11-21T01:18:40.267Z,99.99
2017-11-21T01:19:50.445Z,99.99
2017-11-21T01:21:00.152Z,99.99
2017-11-21T01:22:10.108Z,99.99
2017-11-21T01:23:20.078Z,99.99
2017-11-21T01:24:30.033Z,99.99
2017-11-21T01:25:40.053Z,99.99
2017-11-21T01:26:50.007Z,99.99
2017-11-21T01:27:59.718Z,99.99
2017-11-21T01:29:09.681Z,99.99
2017-11-21T01:30:19.647Z,99.99
2017-11-21T01:31:29.086Z,99.99
2017-11-21T01:32:39.087Z,99.99
2017-11-21T01:33:48.526Z,99.99
2017-11-21T01:34:58.221Z,99.99
2017-11-21T01:36:07.927Z,99.99
2017-11-21T01:37:17.628Z,99.99
2017-11-21T01:38:27.330Z,99.99
2017-11-21T01:39:37.396Z,99.99
2017-11-21T01:40:46.851Z,99.99
2017-11-21T01:41:56.820Z,99.99
2017-11-21T01:43:06.534Z,99.99
2017-11-21T01:44:16.241Z,99.99
2017-11-21T01:45:25.690Z,99.99
2017-11-21T01:46:35.640Z,99.99
2017-11-21T01:47:45.628Z,99.99
2017-11-21T01:48:55.087Z,99.99
2017-11-21T01:50:05.073Z,99.99
2017-11-21T01:51:15.026Z,99.99
2017-11-21T01:52:24.994Z,99.99
2017-11-21T01:53:34.703Z,99.99
2017-11-21T01:54:44.676Z,99.99
2017-11-21T01:55:54.636Z,99.99
2017-11-21T01:57:04.599Z,99.99
2017-11-21T01:58:14.563Z,99.99
2017-11-21T01:59:24.267Z,99.99
2017-11-21T02:00:33.979Z,99.99
2017-11-21T02:01:43.953Z,99.99
2017-11-21T02:02:53.648Z,99.99
2017-11-21T02:04:03.619Z,99.99
2017-11-21T02:05:13.633Z,99.99
2017-11-21T02:06:23.076Z,99.99
2017-11-21T02:07:32.778Z,99.99
2017-11-21T02:08:42.738Z,99.99
2017-11-21T02:09:52.710Z,99.99
2017-11-21T02:11:02.421Z,99.99
2017-11-21T02:12:12.399Z,99.99
2017-11-21T02:13:22.383Z,99.99
2017-11-21T02:14:32.347Z,99.99
2017-11-21T02:15:41.798Z,99.99
2017-11-21T02:16:51.499Z,99.99
2017-11-21T02:18:01.225Z,99.99
2017-11-21T02:19:10.942Z,99.99
2017-11-21T02:20:20.902Z,99.99
2017-11-21T02:21:30.882Z,99.99
2017-11-21T02:22:40.587Z,99.99
2017-11-21T02:23:50.567Z,99.99
2017-11-21T02:25:00.278Z,99.99
2017-11-21T02:26:09.998Z,99.99
2017-11-21T02:27:19.733Z,99.99
2017-11-21T02:28:29.724Z,99.99
2017-11-21T02:29:39.427Z,99.99
2017-11-21T02:30:49.414Z,99.99
2017-11-21T02:31:59.407Z,99.99
2017-11-21T02:33:09.383Z,99.99
2017-11-21T02:34:19.370Z,99.99
2017-11-21T02:35:29.085Z,99.99
2017-11-21T02:36:38.819Z,99.99
2017-11-21T02:37:48.798Z,99.99
2017-11-21T02:38:58.243Z,99.99
2017-11-21T02:40:08.321Z,99.99
2017-11-21T02:41:18.466Z,99.99
2017-11-21T02:42:28.279Z,99.99
2017-11-21T02:43:38.080Z,99.99
2017-11-21T02:44:47.858Z,99.99
2017-11-21T02:45:57.981Z,99.99
2017-11-21T02:47:07.515Z,99.99
2017-11-21T02:48:17.480Z,99.99
2017-11-21T02:49:27.231Z,99.99
2017-11-21T02:50:36.932Z,99.99
2017-11-21T02:51:46.907Z,99.99
2017-11-21T02:52:56.624Z,99.99
2017-11-21T02:54:06.340Z,99.99
2017-11-21T02:55:16.335Z,99.99
2017-11-21T02:56:25.513Z,99.99
2017-11-21T02:57:35.471Z,99.99
2017-11-21T02:58:45.429Z,99.99
2017-11-21T02:59:55.393Z,99.99
2017-11-21T03:01:05.377Z,99.99
2017-11-21T03:02:15.343Z,99.99
2017-11-21T03:03:24.792Z,99.99
2017-11-21T03:04:34.497Z,99.99
2017-11-21T03:05:43.930Z,99.99
2017-11-21T03:06:53.894Z,99.99
2017-11-21T03:08:03.597Z,99.99
2017-11-21T03:09:13.570Z,99.99
2017-11-21T03:10:23.016Z,99.99
2017-11-21T03:11:32.974Z,99.99
2017-11-21T03:12:42.415Z,99.99
2017-11-21T03:13:51.855Z,99.99
2017-11-21T03:15:01.562Z,99.99
2017-11-21T03:16:11.014Z,99.99
2017-11-21T03:17:21.007Z,99.99
2017-11-21T03:18:31.007Z,99.99
2017-11-21T03:19:40.706Z,99.99
2017-11-21T03:20:50.676Z,99.99
2017-11-21T03:22:00.640Z,99.99
2017-11-21T03:23:10.600Z,99.99
2017-11-21T03:24:20.297Z,99.99
2017-11-21T03:25:30.011Z,99.99
2017-11-21T03:26:39.446Z,99.99
2017-11-21T03:27:49.171Z,99.99
2017-11-21T03:28:59.168Z,99.99
2017-11-21T03:30:09.145Z,99.99
2017-11-21T03:31:19.115Z,99.99
2017-11-21T03:32:28.303Z,99.99
2017-11-21T03:33:38.000Z,99.99
2017-11-21T03:34:48.231Z,99.99
2017-11-21T03:35:57.937Z,99.99
2017-11-21T03:37:07.901Z,99.99
2017-11-21T03:38:17.872Z,99.99
2017-11-21T03:39:27.581Z,99.99
2017-11-21T03:40:37.299Z,99.99
2017-11-21T03:41:47.258Z,99.99
2017-11-21T03:42:56.957Z,99.99
2017-11-21T03:44:06.928Z,99.99
2017-11-21T03:45:16.627Z,99.99
2017-11-21T03:46:26.585Z,99.99
2017-11-21T03:47:36.541Z,99.99
2017-11-21T03:48:46.513Z,99.99
2017-11-21T03:49:56.481Z,99.99
2017-11-21T03:51:06.450Z,99.99
2017-11-21T03:52:16.373Z,99.99
2017-11-21T03:53:25.815Z,99.99
2017-11-21T03:54:35.788Z,99.99
2017-11-21T03:55:45.480Z,99.99
2017-11-21T03:56:55.189Z,99.99
2017-11-21T03:58:04.890Z,99.99
2017-11-21T03:59:14.855Z,99.99
2017-11-21T04:00:24.546Z,99.99
2017-11-21T04:01:34.246Z,99.99
2017-11-21T04:02:44.221Z,99.99
2017-11-21T04:03:53.657Z,99.99
2017-11-21T04:05:03.613Z,99.99
2017-11-21T04:06:13.583Z,99.99
2017-11-21T04:07:23.583Z,99.99
2017-11-21T04:08:33.547Z,99.99
2017-11-21T04:09:43.511Z,99.99
2017-11-21T04:10:52.956Z,99.99
2017-11-21T04:12:02.392Z,99.99
2017-11-21T04:13:12.376Z,99.99
2017-11-21T04:14:21.811Z,99.99
2017-11-21T04:15:31.798Z,99.99
2017-11-21T04:16:41.763Z,99.99
2017-11-21T04:17:51.195Z,99.99
2017-11-21T04:19:01.173Z,99.99
2017-11-21T04:20:11.158Z,99.99
2017-11-21T04:21:20.852Z,99.99
2017-11-21T04:22:30.559Z,99.99
2017-11-21T04:23:40.000Z,99.99
2017-11-21T04:24:49.975Z,99.99
2017-11-21T04:26:00.155Z,99.99
2017-11-21T04:27:10.124Z,99.99
2017-11-21T04:28:20.076Z,99.99
2017-11-21T04:29:30.044Z,99.99
2017-11-21T04:30:39.485Z,99.99
2017-11-21T04:31:48.931Z,99.99
2017-11-21T04:32:58.906Z,99.99
2017-11-21T04:34:08.678Z,99.99
2017-11-21T04:35:18.391Z,99.99
2017-11-21T04:36:28.344Z,99.99
2017-11-21T04:37:38.319Z,99.99
2017-11-21T04:38:48.522Z,99.99
2017-11-21T04:39:57.976Z,99.99
2017-11-21T04:41:07.938Z,99.99
2017-11-21T04:42:17.898Z,99.99
2017-11-21T04:43:27.603Z,99.99
2017-11-21T04:44:37.066Z,99.99
2017-11-21T04:45:46.774Z,99.99
2017-11-21T04:46:56.747Z,99.99
2017-11-21T04:48:06.454Z,99.99
2017-11-21T04:49:15.892Z,99.99
2017-11-21T04:50:25.868Z,99.99
2017-11-21T04:51:35.576Z,99.99
2017-11-21T04:52:44.750Z,99.99
2017-11-21T04:53:54.198Z,99.99
2017-11-21T04:55:04.175Z,99.99
2017-11-21T04:56:14.163Z,99.99
2017-11-21T04:57:24.131Z,99.99
2017-11-21T04:58:33.568Z,99.99
2017-11-21T04:59:43.525Z,99.99
2017-11-21T05:00:53.477Z,99.99
2017-11-21T05:02:03.476Z,99.99
2017-11-21T05:03:13.178Z,99.99
2017-11-21T05:04:22.881Z,99.99
2017-11-21T05:05:32.589Z,99.99
2017-11-21T05:06:42.550Z,99.99
2017-11-21T05:07:52.518Z,99.99
2017-11-21T05:09:01.436Z,99.99
2017-11-21T05:10:11.411Z,99.99
2017-11-21T05:11:21.381Z,99.99
2017-11-21T05:12:31.092Z,99.99
2017-11-21T05:13:40.822Z,99.99
2017-11-21T05:14:50.775Z,99.99
2017-11-21T05:16:00.220Z,99.99
2017-11-21T05:17:10.189Z,99.99
2017-11-21T05:18:19.886Z,99.99
2017-11-21T05:19:29.586Z,99.99
2017-11-21T05:20:39.284Z,99.99
2017-11-21T05:21:49.000Z,99.99
2017-11-21T05:22:58.977Z,99.99
2017-11-21T05:24:08.962Z,99.99
2017-11-21T05:25:18.668Z,99.99
2017-11-21T05:26:28.384Z,99.99
2017-11-21T05:27:38.341Z,99.99
2017-11-21T05:28:48.059Z,99.99
2017-11-21T05:29:57.493Z,99.99
2017-11-21T05:31:07.498Z,99.99
2017-11-21T05:32:16.935Z,99.99
2017-11-21T05:33:26.899Z,99.99
2017-11-21T05:34:36.866Z,99.99
2017-11-21T05:35:46.571Z,99.99
2017-11-21T05:36:56.545Z,99.99
2017-11-21T05:38:06.626Z,99.99
2017-11-21T05:39:16.601Z,99.99
2017-11-21T05:40:26.583Z,99.99
2017-11-21T05:41:36.022Z,99.99
2017-11-21T05:42:45.727Z,99.99
2017-11-21T05:43:55.695Z,99.99
2017-11-21T05:45:05.403Z,99.99
2017-11-21T05:46:15.354Z,99.99
2017-11-21T05:47:25.055Z,99.99
2017-11-21T05:48:34.758Z,99.99
2017-11-21T05:49:44.755Z,99.99
2017-11-21T05:50:54.709Z,99.99
2017-11-21T05:52:04.423Z,99.99
2017-11-21T05:53:14.394Z,99.99
2017-11-21T05:54:24.365Z,99.99
2017-11-21T05:55:34.327Z,99.99
2017-11-21T05:56:44.027Z,99.99
2017-11-21T05:57:53.748Z,99.99
2017-11-21T05:59:03.466Z,99.99
2017-11-21T06:00:13.476Z,99.99
2017-11-21T06:01:23.468Z,99.99
2017-11-21T06:02:33.440Z,99.99
2017-11-21T06:03:43.189Z,99.99
2017-11-21T06:04:52.628Z,99.99
2017-11-21T06:06:02.610Z,99.99
2017-11-21T06:07:11.786Z,99.99
2017-11-21T06:08:21.486Z,99.99
2017-11-21T06:09:31.201Z,99.99
2017-11-21T06:10:40.913Z,99.99
2017-11-21T06:11:50.613Z,99.99
2017-11-21T06:13:00.580Z,99.99
2017-11-21T06:14:10.280Z,99.99
2017-11-21T06:15:20.249Z,99.99
2017-11-21T06:16:29.970Z,99.99
2017-11-21T06:17:39.940Z,99.99
2017-11-21T06:18:49.646Z,99.99
2017-11-21T06:19:59.348Z,99.99
2017-11-21T06:21:09.316Z,99.99
2017-11-21T06:22:19.287Z,99.99
2017-11-21T06:23:28.997Z,99.99
2017-11-21T06:24:38.950Z,99.99
2017-11-21T06:25:48.401Z,99.99
2017-11-21T06:26:58.368Z,99.99
2017-11-21T06:28:08.077Z,99.99
2017-11-21T06:29:18.071Z,99.99
2017-11-21T06:30:27.538Z,99.99
2017-11-21T06:31:37.252Z,99.99
2017-11-21T06:32:46.956Z,99.99
2017-11-21T06:33:56.923Z,99.99
2017-11-21T06:35:06.911Z,99.99
2017-11-21T06:36:16.637Z,99.99
2017-11-21T06:37:26.607Z,99.99
2017-11-21T06:38:36.576Z,99.99
2017-11-21T06:39:46.020Z,99.99
2017-11-21T06:40:55.996Z,99.99
2017-11-21T06:42:05.736Z,99.99
2017-11-21T06:43:15.455Z,99.99
2017-11-21T06:44:25.475Z,99.99
2017-11-21T06:45:35.183Z,99.99
2017-11-21T06:46:44.884Z,99.86
2017-11-21T06:47:54.593Z,99.1
2017-11-21T06:49:04.563Z,99.01
2017-11-21T06:50:14.523Z,99.39
2017-11-21T06:51:24.505Z,98.82
2017-11-21T06:52:34.478Z,99.39
2017-11-21T06:53:44.488Z,99.48
2017-11-21T06:54:54.451Z,98.63
2017-11-21T06:56:04.415Z,98.91
2017-11-21T06:57:14.128Z,99.2
2017-11-21T06:58:23.846Z,98.44
2017-11-21T06:59:33.573Z,98.54
2017-11-21T07:00:43.555Z,98.82
2017-11-21T07:01:53.011Z,98.72
2017-11-21T07:03:02.720Z,98.63
2017-11-21T07:04:12.691Z,98.72
2017-11-21T07:05:22.421Z,98.82
2017-11-21T07:06:32.117Z,98.72
2017-11-21T07:07:41.563Z,99.01
2017-11-21T07:08:51.013Z,98.91
2017-11-21T07:10:00.735Z,98.25
2017-11-21T07:11:10.482Z,98.25
2017-11-21T07:12:20.468Z,98.16
2017-11-21T07:13:30.478Z,98.91
2017-11-21T07:14:40.206Z,98.82
2017-11-21T07:15:49.924Z,98.54
2017-11-21T07:16:59.882Z,98.44
2017-11-21T07:18:09.585Z,98.63
2017-11-21T07:19:19.546Z,98.35
2017-11-21T07:20:29.266Z,98.44
2017-11-21T07:21:38.985Z,98.91
2017-11-21T07:22:48.691Z,98.63
2017-11-21T07:23:58.681Z,98.35
2017-11-21T07:25:08.669Z,98.54
2017-11-21T07:26:18.112Z,99.01
2017-11-21T07:27:28.091Z,98.91
2017-11-21T07:28:37.538Z,98.63
2017-11-21T07:29:46.983Z,98.72
2017-11-21T07:30:56.475Z,98.82
2017-11-21T07:32:06.465Z,99.29
2017-11-21T07:33:16.442Z,99.29
2017-11-21T07:34:25.886Z,98.72
2017-11-21T07:35:35.589Z,99.48
2017-11-21T07:36:45.547Z,99.2
2017-11-21T07:37:55.512Z,99.58
2017-11-21T07:39:05.232Z,99.29
2017-11-21T07:40:15.203Z,99.48
2017-11-21T07:41:24.668Z,99.1
2017-11-21T07:42:34.641Z,99.39
2017-11-21T07:43:44.610Z,98.63
2017-11-21T07:44:53.824Z,98.72
2017-11-21T07:46:03.280Z,98.35
2017-11-21T07:47:13.292Z,98.63
2017-11-21T07:48:23.008Z,99.01
2017-11-21T07:49:32.215Z,98.91
2017-11-21T07:50:42.222Z,98.54
2017-11-21T07:51:52.262Z,99.01
2017-11-21T07:53:02.232Z,98.82
2017-11-21T07:54:11.958Z,98.72
2017-11-21T07:55:21.966Z,99.48
2017-11-21T07:56:31.947Z,99.1
2017-11-21T07:57:41.972Z,99.29
2017-11-21T07:58:51.968Z,99.2
2017-11-21T08:00:01.692Z,99.1
2017-11-21T08:01:12.050Z,99.29
2017-11-21T08:02:22.047Z,99.2
2017-11-21T08:03:31.805Z,99.1
2017-11-21T08:04:41.551Z,99.1
2017-11-21T08:05:51.300Z,99.1
2017-11-21T08:07:01.037Z,99.1
2017-11-21T08:08:11.019Z,99.1
2017-11-21T08:09:20.623Z,99.48
2017-11-21T08:10:30.602Z,99.1
2017-11-21T08:11:40.318Z,99.29
2017-11-21T08:12:50.041Z,99.48
2017-11-21T08:13:59.501Z,99.29
2017-11-21T08:15:09.250Z,98.82
2017-11-21T08:16:18.955Z,99.2
2017-11-21T08:17:28.651Z,98.63
2017-11-21T08:18:38.363Z,98.54
2017-11-21T08:19:48.338Z,98.63
2017-11-21T08:20:58.057Z,98.44
2017-11-21T08:22:07.779Z,98.06
2017-11-21T08:23:17.782Z,98.63
2017-11-21T08:24:27.837Z,98.72
2017-11-21T08:25:37.570Z,98.72
2017-11-21T08:26:47.569Z,99.25
2017-11-21T08:27:57.554Z,99.29
2017-11-21T08:29:07.278Z,99.2
2017-11-21T08:30:16.986Z,99.15
2017-11-21T08:31:26.987Z,99.99
2017-11-21T08:32:36.189Z,99.63
2017-11-21T08:33:46.177Z,99.63
2017-11-21T08:34:55.903Z,99.82
2017-11-21T08:36:05.615Z,99.99
2017-11-21T08:37:15.599Z,99.99
2017-11-21T08:38:25.569Z,99.99
2017-11-21T08:39:35.287Z,99.99
2017-11-21T08:40:44.761Z,99.99
2017-11-21T08:41:54.865Z,99.99
2017-11-21T08:43:04.893Z,99.99
2017-11-21T08:44:14.620Z,99.99
2017-11-21T08:45:24.329Z,99.99
2017-11-21T08:46:34.051Z,99.99
2017-11-21T08:47:44.027Z,99.99
2017-11-21T08:48:53.768Z,99.99
2017-11-21T08:50:03.489Z,99.99
2017-11-21T08:51:13.218Z,99.99
2017-11-21T08:52:23.215Z,99.99
2017-11-21T08:53:32.950Z,99.99
2017-11-21T08:54:42.922Z,99.99
2017-11-21T08:55:52.629Z,99.99
2017-11-21T08:57:02.341Z,99.99
2017-11-21T08:58:11.808Z,99.99
2017-11-21T08:59:21.535Z,99.99
2017-11-21T09:00:31.546Z,99.99
2017-11-21T09:01:41.282Z,99.99
2017-11-21T09:02:50.782Z,99.99
2017-11-21T09:04:00.521Z,99.99
2017-11-21T09:05:10.497Z,99.99
2017-11-21T09:06:20.223Z,99.99
2017-11-21T09:07:29.699Z,99.99
2017-11-21T09:08:39.674Z,99.99
2017-11-21T09:09:49.380Z,99.99
2017-11-21T09:10:58.846Z,99.99
2017-11-21T09:12:08.835Z,99.99
2017-11-21T09:13:18.294Z,99.99
2017-11-21T09:14:28.269Z,99.99
2017-11-21T09:15:37.723Z,99.99
2017-11-21T09:16:47.682Z,99.99
2017-11-21T09:17:57.429Z,99.99
2017-11-21T09:19:07.158Z,99.99
2017-11-21T09:20:17.147Z,99.99
2017-11-21T09:21:27.117Z,99.99
2017-11-21T09:22:36.825Z,99.99
2017-11-21T09:23:46.295Z,99.99
2017-11-21T09:24:56.005Z,99.99
2017-11-21T09:26:05.730Z,99.99
2017-11-21T09:27:15.452Z,99.99
2017-11-21T09:28:25.507Z,99.99
2017-11-21T09:29:34.962Z,99.99
2017-11-21T09:30:44.977Z,99.99
2017-11-21T09:31:54.953Z,99.99
2017-11-21T09:33:04.977Z,99.99
2017-11-21T09:34:14.428Z,99.99
2017-11-21T09:35:24.412Z,99.99
2017-11-21T09:36:34.163Z,99.99
2017-11-21T09:37:43.644Z,99.99
2017-11-21T09:38:53.628Z,99.99
2017-11-21T09:40:03.626Z,99.99
2017-11-21T09:41:13.677Z,99.99
2017-11-21T09:42:23.661Z,99.99
2017-11-21T09:43:33.389Z,99.99
2017-11-21T09:44:43.137Z,99.99
2017-11-21T09:45:52.610Z,99.99
2017-11-21T09:47:02.069Z,99.99
2017-11-21T09:48:12.074Z,99.99
2017-11-21T09:49:21.808Z,99.99
2017-11-21T09:50:31.531Z,99.99
2017-11-21T09:51:41.293Z,99.99
2017-11-21T09:52:51.289Z,99.99
2017-11-21T09:54:01.277Z,99.99
2017-11-21T09:55:11.250Z,99.99
2017-11-21T09:56:21.221Z,99.99
2017-11-21T09:57:30.933Z,99.99
2017-11-21T09:58:40.937Z,99.99
2017-11-21T09:59:50.951Z,99.99
2017-11-21T10:01:00.444Z,99.99
2017-11-21T10:02:10.162Z,99.99
2017-11-21T10:03:19.607Z,99.99
2017-11-21T10:04:29.330Z,99.99
2017-11-21T10:05:39.347Z,99.99
2017-11-21T10:06:49.431Z,99.99
2017-11-21T10:07:59.444Z,99.99
2017-11-21T10:09:09.503Z,99.99
2017-11-21T10:10:19.703Z,99.99
2017-11-21T10:11:29.718Z,99.99
2017-11-21T10:12:39.170Z,99.99
2017-11-21T10:13:48.644Z,99.99
2017-11-21T10:14:58.655Z,99.99
2017-11-21T10:16:08.638Z,99.99
2017-11-21T10:17:18.649Z,99.99
2017-11-21T10:18:28.392Z,99.99
2017-11-21T10:19:38.371Z,99.99
2017-11-21T10:20:48.591Z,99.99
2017-11-21T10:21:58.595Z,99.99
2017-11-21T10:23:08.319Z,99.99
2017-11-21T10:24:17.528Z,99.99
2017-11-21T10:25:26.977Z,99.99
2017-11-21T10:26:36.713Z,99.99
2017-11-21T10:27:46.191Z,99.99
2017-11-21T10:28:56.200Z,99.99
2017-11-21T10:30:05.968Z,99.99
2017-11-21T10:31:15.678Z,99.99
2017-11-21T10:32:25.395Z,99.99
2017-11-21T10:33:34.850Z,99.99
2017-11-21T10:34:44.567Z,99.99
2017-11-21T10:35:54.120Z,99.99
2017-11-21T10:37:03.857Z,99.99
2017-11-21T10:38:13.577Z,99.99
2017-11-21T10:39:23.042Z,99.99
2017-11-21T10:40:32.765Z,99.99
2017-11-21T10:41:42.781Z,99.99
2017-11-21T10:42:52.571Z,99.99
2017-11-21T10:44:02.345Z,99.99
2017-11-21T10:45:12.051Z,99.99
2017-11-21T10:46:21.743Z,99.99
2017-11-21T10:47:31.475Z,99.99
2017-11-21T10:48:41.719Z,99.99
2017-11-21T10:49:51.441Z,99.99
2017-11-21T10:51:01.464Z,99.99
2017-11-21T10:52:11.448Z,99.99
2017-11-21T10:53:21.159Z,99.99
2017-11-21T10:54:31.136Z,99.99
2017-11-21T10:55:40.867Z,99.99
2017-11-21T10:56:50.345Z,99.99
2017-11-21T10:57:59.558Z,99.99
2017-11-21T10:59:10.484Z,99.99
2017-11-21T11:00:20.215Z,99.99
2017-11-21T11:01:30.203Z,99.99
2017-11-21T11:02:39.661Z,99.99
2017-11-21T11:03:49.409Z,99.99
2017-11-21T11:04:59.157Z,99.99
2017-11-21T11:06:08.636Z,99.99
2017-11-21T11:07:18.101Z,99.99
2017-11-21T11:08:28.102Z,99.99
2017-11-21T11:09:37.846Z,99.99
2017-11-21T11:10:47.820Z,99.99
2017-11-21T11:11:57.543Z,99.99
2017-11-21T11:13:07.561Z,99.99
2017-11-21T11:14:17.006Z,99.99
2017-11-21T11:15:26.741Z,99.99
2017-11-21T11:16:36.199Z,99.99
2017-11-21T11:17:46.205Z,99.99
2017-11-21T11:18:56.176Z,99.99
2017-11-21T11:20:06.212Z,99.99
2017-11-21T11:21:15.663Z,99.99
2017-11-21T11:22:25.449Z,99.99
2017-11-21T11:23:35.411Z,99.99
2017-11-21T11:24:45.376Z,99.99
2017-11-21T11:25:55.100Z,99.99
2017-11-21T11:27:04.803Z,99.99
2017-11-21T11:28:14.784Z,99.99
2017-11-21T11:29:24.501Z,99.99
2017-11-21T11:30:33.984Z,99.99
2017-11-21T11:31:43.973Z,99.99
2017-11-21T11:32:53.417Z,99.99
2017-11-21T11:34:03.147Z,99.99
2017-11-21T11:35:12.595Z,99.99
2017-11-21T11:36:22.344Z,99.99
2017-11-21T11:37:32.070Z,99.99
2017-11-21T11:38:41.872Z,99.99
2017-11-21T11:39:51.323Z,99.99
2017-11-21T11:41:01.318Z,99.99
2017-11-21T11:42:11.307Z,99.99
2017-11-21T11:43:21.038Z,99.99
2017-11-21T11:44:30.764Z,99.99
2017-11-21T11:45:40.740Z,99.99
2017-11-21T11:46:50.466Z,99.99
2017-11-21T11:48:00.441Z,99.99
2017-11-21T11:49:10.421Z,99.99
2017-11-21T11:50:20.446Z,99.99
2017-11-21T11:51:30.174Z,99.99
2017-11-21T11:52:39.139Z,99.99
2017-11-21T11:53:48.871Z,99.99
2017-11-21T11:54:58.853Z,99.99
2017-11-21T11:56:08.564Z,99.99
2017-11-21T11:57:18.271Z,99.99
2017-11-21T11:58:27.736Z,99.99
2017-11-21T11:59:37.476Z,99.99
2017-11-21T12:00:47.444Z,99.99
2017-11-21T12:01:57.168Z,99.99
2017-11-21T12:03:06.880Z,99.99
2017-11-21T12:04:16.610Z,99.99
2017-11-21T12:05:26.354Z,99.99
2017-11-21T12:06:36.090Z,99.99
2017-11-21T12:07:45.538Z,99.99
2017-11-21T12:08:54.978Z,99.99
2017-11-21T12:10:04.978Z,99.99
2017-11-21T12:11:14.785Z,99.99
2017-11-21T12:12:24.771Z,99.99
2017-11-21T12:13:34.240Z,99.99
2017-11-21T12:14:43.946Z,99.99
2017-11-21T12:15:53.934Z,99.99
2017-11-21T12:17:03.651Z,99.99
2017-11-21T12:18:13.393Z,99.99
2017-11-21T12:19:22.840Z,99.99
2017-11-21T12:20:32.574Z,99.99
2017-11-21T12:21:42.566Z,99.99
2017-11-21T12:22:52.571Z,99.99
2017-11-21T12:24:02.032Z,99.99
2017-11-21T12:25:11.513Z,99.99
2017-11-21T12:26:21.481Z,99.99
2017-11-21T12:27:30.974Z,99.99
2017-11-21T12:28:40.934Z,99.99
2017-11-21T12:29:50.676Z,99.99
2017-11-21T12:31:00.396Z,99.99
2017-11-21T12:32:10.122Z,99.99
2017-11-21T12:33:20.091Z,99.99
2017-11-21T12:34:30.098Z,99.99
2017-11-21T12:35:39.809Z,99.99
2017-11-21T12:36:49.804Z,99.99
2017-11-21T12:37:59.786Z,99.99
2017-11-21T12:39:09.527Z,99.99
2017-11-21T12:40:19.508Z,99.99
2017-11-21T12:41:29.522Z,99.99
2017-11-21T12:42:38.988Z,99.99
2017-11-21T12:43:49.001Z,99.99
2017-11-21T12:44:58.462Z,99.99
2017-11-21T12:46:08.189Z,99.99
2017-11-21T12:47:17.653Z,99.99
2017-11-21T12:48:27.103Z,99.99
2017-11-21T12:49:36.815Z,99.99
2017-11-21T12:50:46.823Z,99.99
2017-11-21T12:51:56.808Z,99.99
2017-11-21T12:53:06.532Z,99.99
2017-11-21T12:54:16.518Z,99.99
2017-11-21T12:55:26.287Z,99.99
2017-11-21T12:56:36.276Z,99.99
2017-11-21T12:57:46.500Z,99.99
2017-11-21T12:58:56.246Z,99.99
2017-11-21T13:00:06.242Z,99.99
2017-11-21T13:01:15.706Z,99.99
2017-11-21T13:02:25.530Z,99.99
2017-11-21T13:03:35.597Z,99.99
2017-11-21T13:04:45.393Z,99.99
2017-11-21T13:05:55.192Z,99.99
2017-11-21T13:07:04.910Z,99.99
2017-11-21T13:08:14.645Z,99.99
2017-11-21T13:09:24.630Z,99.99
2017-11-21T13:10:34.632Z,99.99
2017-11-21T13:11:44.375Z,99.99
2017-11-21T13:12:53.821Z,99.99
2017-11-21T13:14:03.808Z,99.99
2017-11-21T13:15:13.790Z,99.99
2017-11-21T13:16:23.783Z,99.99
2017-11-21T13:17:33.770Z,99.99
2017-11-21T13:18:43.776Z,99.99
2017-11-21T13:19:53.976Z,99.99
2017-11-21T13:21:03.723Z,99.99
2017-11-21T13:22:13.533Z,99.99
2017-11-21T13:23:23.563Z,99.99
2017-11-21T13:24:33.295Z,99.99
2017-11-21T13:25:43.015Z,99.99
2017-11-21T13:26:52.738Z,99.99
2017-11-21T13:28:02.445Z,99.99
2017-11-21T13:29:12.431Z,99.99
2017-11-21T13:30:22.270Z,99.99
2017-11-21T13:31:32.002Z,99.99
2017-11-21T13:32:41.731Z,99.99
2017-11-21T13:33:51.444Z,99.99
2017-11-21T13:35:01.190Z,99.99
2017-11-21T13:36:10.936Z,99.99
2017-11-21T13:37:20.931Z,99.99
2017-11-21T13:38:30.647Z,99.99
2017-11-21T13:39:40.109Z,99.99
2017-11-21T13:40:50.102Z,99.99
2017-11-21T13:41:59.596Z,99.99
2017-11-21T13:43:09.313Z,99.99
2017-11-21T13:44:19.304Z,99.99
2017-11-21T13:45:28.760Z,99.99
2017-11-21T13:46:38.933Z,99.99
2017-11-21T13:47:48.114Z,99.99
2017-11-21T13:48:57.832Z,99.99
2017-11-21T13:50:07.281Z,99.99
2017-11-21T13:51:16.771Z,99.99
2017-11-21T13:52:26.521Z,99.99
2017-11-21T13:53:36.299Z,99.99
2017-11-21T13:54:46.011Z,99.99
2017-11-21T13:55:55.448Z,99.99
2017-11-21T13:57:04.628Z,99.99
2017-11-21T13:58:14.335Z,99.99
2017-11-21T13:59:24.042Z,99.99
2017-11-21T14:00:33.777Z,99.99
2017-11-21T14:01:43.761Z,99.99
2017-11-21T14:02:53.772Z,99.99
2017-11-21T14:04:03.771Z,99.99
2017-11-21T14:05:13.240Z,99.99
2017-11-21T14:06:23.256Z,99.99
2017-11-21T14:07:32.988Z,99.99
2017-11-21T14:08:43.020Z,99.99
2017-11-21T14:09:52.488Z,99.99
2017-11-21T14:11:02.472Z,99.99
2017-11-21T14:12:12.449Z,99.99
2017-11-21T14:13:22.176Z,99.99
2017-11-21T14:14:31.890Z,99.99
2017-11-21T14:15:41.072Z,99.99
2017-11-21T14:16:50.805Z,99.99
2017-11-21T14:18:00.541Z,99.99
2017-11-21T14:19:10.279Z,99.99
2017-11-21T14:20:20.248Z,99.99
2017-11-21T14:21:29.716Z,99.99
2017-11-21T14:22:39.428Z,99.99
2017-11-21T14:23:49.158Z,99.99
2017-11-21T14:24:58.608Z,99.99
2017-11-21T14:26:08.610Z,99.99
2017-11-21T14:27:18.622Z,99.99
2017-11-21T14:28:28.068Z,99.99
2017-11-21T14:29:37.521Z,99.99
2017-11-21T14:30:47.507Z,99.99
2017-11-21T14:31:57.226Z,99.99
2017-11-21T14:33:07.271Z,99.99
2017-11-21T14:34:17.242Z,99.99
2017-11-21T14:35:27.245Z,99.99
2017-11-21T14:36:36.973Z,99.99
2017-11-21T14:37:46.703Z,99.99
2017-11-21T14:38:56.439Z,99.99
2017-11-21T14:40:06.160Z,99.99
2017-11-21T14:41:15.619Z,99.99
2017-11-21T14:42:25.602Z,99.99
2017-11-21T14:43:35.579Z,99.99
2017-11-21T14:44:45.283Z,99.99
2017-11-21T14:45:55.301Z,99.99
2017-11-21T14:47:05.301Z,99.99
2017-11-21T14:48:15.010Z,99.99
2017-11-21T14:49:24.734Z,99.99
2017-11-21T14:50:34.451Z,99.99
2017-11-21T14:51:44.452Z,99.99
2017-11-21T14:52:54.469Z,99.99
2017-11-21T14:54:04.456Z,99.99
2017-11-21T14:55:14.204Z,99.99
2017-11-21T14:56:24.190Z,99.99
2017-11-21T14:57:33.913Z,99.99
2017-11-21T14:58:43.883Z,99.99
2017-11-21T14:59:53.599Z,99.99